Time;durP1;ratioP1;P1;durP2;ratioP2;P2;SDS_P1;SDS_P2;PMS_P1;PMS_P2;Temp;Humidity;BMP_temperature;BMP_pressure;BME280_temperature;BME280_humidity;BME280_pressure;Samples;Min_cycle;Max_cycle;Signal;HPM_P1;HPM_P2
2022/01/25 00:15:03;;;;;;;0.80;0.70;;;17.50;46.00;;;;;;5029177;28;45152;-77
2022/01/25 00:27:37;;;;;;;1.15;0.90;;;17.50;45.10;;;;;;5046803;28;46203;-77
2022/01/25 00:30:23;;;;;;;0.95;0.82;;;17.50;45.30;;;;;;5034827;28;45167;-77
2022/01/25 00:32:51;;;;;;;1.42;0.90;;;17.50;46.00;;;;;;5040743;28;45338;-77
2022/01/25 00:35:20;;;;;;;0.93;0.70;;;17.50;46.90;;;;;;5053827;28;45353;-77
2022/01/25 00:37:47;;;;;;;1.52;0.80;;;17.50;47.20;;;;;;5040191;28;46590;-77
2022/01/25 00:40:14;;;;;;;0.77;0.70;;;17.50;48.00;;;;;;5036665;28;45851;-76
2022/01/25 00:42:41;;;;;;;1.90;1.05;;;17.50;47.10;;;;;;5036710;28;45237;-76
2022/01/25 00:45:10;;;;;;;0.75;0.70;;;17.60;47.40;;;;;;5029080;28;45246;-76
2022/01/25 00:47:40;;;;;;;1.38;0.90;;;17.60;47.50;;;;;;5046772;28;47095;-76
2022/01/25 00:50:13;;;;;;;1.25;0.90;;;17.60;47.60;;;;;;5036822;28;45421;-77
2022/01/25 00:55:27;;;;;;;0.85;0.70;;;17.50;47.00;;;;;;5041976;28;45207;-76
2022/01/25 00:57:55;;;;;;;1.33;0.88;;;17.50;47.40;;;;;;5032961;28;46138;-77
2022/01/25 01:00:22;;;;;;;1.98;1.00;;;17.50;47.60;;;;;;5048177;28;45185;-77
2022/01/25 01:02:49;;;;;;;0.60;0.60;;;17.50;47.60;;;;;;5038081;28;45384;-76
2022/01/25 01:05:16;;;;;;;1.05;0.70;;;17.50;48.20;;;;;;5029270;28;45134;-76
2022/01/25 01:07:44;;;;;;;0.70;0.70;;;17.50;48.60;;;;;;5046663;28;47595;-76
2022/01/25 01:10:16;;;;;;;0.60;0.60;;;17.50;48.80;;;;;;5046508;28;45223;-76
2022/01/25 01:15:34;;;;;;;0.70;0.70;;;17.50;47.70;;;;;;5015367;28;45262;-76
2022/01/25 01:29:13;;;;;;;0.80;0.70;;;17.50;47.00;;;;;;5046937;28;45452;-76
2022/01/25 01:31:55;;;;;;;0.82;0.80;;;17.60;47.30;;;;;;5030724;28;45220;-76
2022/01/25 01:37:42;;;;;;;1.35;1.00;;;17.50;47.40;;;;;;5039215;28;45295;-77
2022/01/25 01:45:48;;;;;;;1.42;0.98;;;17.50;47.60;;;;;;5026361;28;45389;-76
2022/01/25 01:48:27;;;;;;;0.88;0.85;;;17.50;48.60;;;;;;5046639;28;45503;-76
2022/01/25 01:50:54;;;;;;;1.10;1.00;;;17.50;47.00;;;;;;5047195;28;47978;-76
2022/01/25 01:53:21;;;;;;;1.08;1.00;;;17.50;47.40;;;;;;5040441;28;45226;-76
2022/01/25 01:55:49;;;;;;;1.33;1.00;;;17.50;47.60;;;;;;5035435;28;45215;-76
2022/01/25 01:58:16;;;;;;;2.03;1.25;;;17.50;47.60;;;;;;5028125;28;45530;-76
2022/01/25 02:00:47;;;;;;;1.13;0.85;;;17.60;47.60;;;;;;5031823;28;48182;-77
2022/01/25 02:03:15;;;;;;;1.30;1.10;;;17.60;47.50;;;;;;5034821;28;45606;-77
2022/01/25 02:05:43;;;;;;;1.02;0.93;;;17.60;47.70;;;;;;5029711;28;45320;-76
2022/01/25 02:08:11;;;;;;;2.33;0.90;;;17.50;47.60;;;;;;5027987;28;45522;-77
2022/01/25 02:10:38;;;;;;;1.70;1.20;;;17.60;47.60;;;;;;5034279;28;48488;-76
2022/01/25 02:13:09;;;;;;;1.27;1.17;;;17.50;47.40;;;;;;5038561;28;45300;-77
2022/01/25 02:15:38;;;;;;;1.85;0.88;;;17.50;47.50;;;;;;5041320;28;45306;-76
2022/01/25 02:23:39;;;;;;;1.02;0.93;;;17.50;47.60;;;;;;5041929;28;45380;-76
2022/01/25 02:26:08;;;;;;;1.30;1.02;;;17.50;47.50;;;;;;5047352;28;45211;-76
2022/01/25 02:28:38;;;;;;;2.13;1.20;;;17.50;47.60;;;;;;5047331;28;45334;-77
2022/01/25 02:31:08;;;;;;;1.20;1.10;;;17.50;47.50;;;;;;5027330;28;46145;-76
2022/01/25 02:33:35;;;;;;;1.13;1.00;;;17.50;47.60;;;;;;5040620;28;45840;-76
2022/01/25 02:36:06;;;;;;;1.67;1.10;;;17.50;47.70;;;;;;5046248;28;45434;-76
2022/01/25 02:38:34;;;;;;;1.08;0.98;;;17.50;47.70;;;;;;5027702;28;45180;-76
2022/01/25 02:41:02;;;;;;;2.35;1.10;;;17.50;47.70;;;;;;5036788;28;47990;-76
2022/01/25 02:43:29;;;;;;;1.42;1.13;;;17.50;47.40;;;;;;5035401;28;45317;-76
2022/01/25 02:48:51;;;;;;;1.60;1.00;;;17.60;47.60;;;;;;5003072;28;45267;-76
2022/01/25 02:51:20;;;;;;;1.33;1.20;;;17.60;47.40;;;;;;5046687;28;48490;-76
2022/01/25 02:53:47;;;;;;;0.93;0.93;;;17.50;47.20;;;;;;5027347;28;45303;-76
2022/01/25 02:56:15;;;;;;;1.20;1.10;;;17.50;47.20;;;;;;5027211;28;45309;-76
2022/01/25 02:58:42;;;;;;;1.10;1.00;;;17.50;47.40;;;;;;5029394;28;45394;-76
2022/01/25 03:01:09;;;;;;;1.95;1.00;;;17.50;47.40;;;;;;5046841;28;45656;-76
2022/01/25 03:03:36;;;;;;;1.60;1.10;;;17.50;47.40;;;;;;5044937;28;46124;-76
2022/01/25 03:06:04;;;;;;;1.33;1.10;;;17.50;47.40;;;;;;5041184;28;45543;-76
2022/01/25 03:08:33;;;;;;;1.10;0.98;;;17.50;47.40;;;;;;5030217;28;45418;-76
2022/01/25 03:11:00;;;;;;;1.42;1.00;;;17.50;47.50;;;;;;5028858;28;48138;-76
2022/01/25 03:13:32;;;;;;;1.60;1.40;;;17.50;47.40;;;;;;5030842;28;45187;-76
2022/01/25 03:16:03;;;;;;;1.67;1.10;;;17.50;47.40;;;;;;5041782;28;45643;-76
2022/01/25 03:18:44;;;;;;;1.10;1.00;;;17.50;47.60;;;;;;5046074;28;45472;-76
2022/01/25 03:21:21;;;;;;;0.80;0.80;;;17.50;47.50;;;;;;5044631;28;47884;-76
2022/01/25 03:23:51;;;;;;;1.45;1.20;;;17.50;47.20;;;;;;5043121;28;45706;-76
2022/01/25 03:26:18;;;;;;;1.50;1.20;;;17.60;47.40;;;;;;5036280;28;45426;-76
2022/01/25 03:28:46;;;;;;;1.10;1.00;;;17.60;47.50;;;;;;5038789;28;45370;-76
2022/01/25 03:31:14;;;;;;;1.40;1.23;;;17.50;47.30;;;;;;5033234;28;46584;-76
2022/01/25 03:33:41;;;;;;;1.40;1.10;;;17.50;47.00;;;;;;5045142;28;45147;-76
2022/01/25 03:36:11;;;;;;;1.20;1.10;;;17.50;47.30;;;;;;5046125;28;45265;-76
2022/01/25 03:38:39;;;;;;;1.25;1.10;;;17.50;47.30;;;;;;5048211;28;45142;-76
2022/01/25 03:41:10;;;;;;;1.52;0.95;;;17.50;47.30;;;;;;5049138;28;46673;-76
2022/01/25 03:43:38;;;;;;;1.20;0.90;;;17.50;47.30;;;;;;5043651;28;45332;-76
2022/01/25 03:46:12;;;;;;;1.80;1.13;;;17.50;47.40;;;;;;5032260;28;45295;-76
2022/01/25 03:51:23;;;;;;;1.52;0.70;;;17.50;47.40;;;;;;5041651;28;45159;-76
2022/01/25 03:53:53;;;;;;;0.82;0.82;;;17.50;47.50;;;;;;5052314;28;45258;-76
2022/01/25 03:56:22;;;;;;;1.67;1.10;;;17.50;47.50;;;;;;5041416;28;45258;-76
2022/01/25 03:58:49;;;;;;;1.08;0.98;;;17.50;47.50;;;;;;5048422;28;45367;-76
2022/01/25 04:01:17;;;;;;;1.50;0.82;;;17.50;47.60;;;;;;5044014;28;47330;-76
2022/01/25 04:03:53;;;;;;;1.30;1.20;;;17.50;47.60;;;;;;5048867;28;45350;-76
2022/01/25 04:06:21;;;;;;;0.73;0.70;;;17.50;47.40;;;;;;5065012;28;45267;-76
2022/01/25 04:08:49;;;;;;;0.85;0.80;;;17.50;47.40;;;;;;5049095;28;45300;-76
2022/01/25 04:11:16;;;;;;;1.13;0.90;;;17.60;47.00;;;;;;5047593;28;48315;-76
2022/01/25 04:13:44;;;;;;;0.80;0.80;;;17.50;47.00;;;;;;5043278;28;46134;-76
2022/01/25 04:16:16;;;;;;;1.55;0.80;;;17.50;47.00;;;;;;5047679;28;45176;-76
2022/01/25 04:19:02;;;;;;;1.63;1.10;;;17.50;47.20;;;;;;5048850;28;45351;-76
2022/01/25 04:21:46;;;;;;;0.80;0.77;;;17.50;47.20;;;;;;5049045;28;47644;-76
2022/01/25 04:26:58;;;;;;;0.80;0.75;;;17.50;47.20;;;;;;5046973;28;45232;-76
2022/01/25 04:29:28;;;;;;;0.90;0.70;;;17.40;47.00;;;;;;5042052;28;45154;-76
2022/01/25 04:31:56;;;;;;;1.23;0.90;;;17.50;47.30;;;;;;5037049;28;47569;-76
2022/01/25 04:51:06;;;;;;;2.17;1.20;;;17.50;47.00;;;;;;5048374;28;45279;-76
2022/01/25 04:53:42;;;;;;;4.38;1.42;;;17.50;46.90;;;;;;5040022;28;46987;-76
2022/01/25 04:56:16;;;;;;;2.67;1.17;;;17.50;47.00;;;;;;5039245;28;45323;-76
2022/01/25 04:58:50;;;;;;;1.33;1.15;;;17.50;47.00;;;;;;5028832;28;45228;-76
2022/01/25 05:01:19;;;;;;;1.40;1.08;;;17.50;47.10;;;;;;5030405;28;45648;-76
2022/01/25 05:04:02;;;;;;;1.00;0.90;;;17.50;47.10;;;;;;5039721;28;47390;-76
2022/01/25 05:06:30;;;;;;;1.80;1.20;;;17.50;47.00;;;;;;5048004;28;45199;-76
2022/01/25 05:09:06;;;;;;;1.77;1.10;;;17.50;47.10;;;;;;5039117;28;45442;-76
2022/01/25 05:11:36;;;;;;;1.95;1.13;;;17.40;47.10;;;;;;5032192;28;45506;-77
2022/01/25 05:14:16;;;;;;;3.22;1.10;;;17.40;47.30;;;;;;5041886;28;47544;-76
2022/01/25 05:16:53;;;;;;;1.30;1.00;;;17.40;47.40;;;;;;5272432;22;45952;-76
2022/01/25 05:19:35;;;;;;;2.00;1.00;;;17.40;47.60;;;;;;5086700;27;45341;-77
2022/01/25 05:22:07;;;;;;;3.25;1.10;;;17.40;47.70;;;;;;5083218;28;45138;-77
2022/01/25 05:24:36;;;;;;;1.50;1.30;;;17.40;47.70;;;;;;5083224;28;46440;-77
2022/01/25 05:27:04;;;;;;;1.00;0.90;;;17.40;47.40;;;;;;5078012;28;45240;-77
2022/01/25 05:29:32;;;;;;;2.55;1.15;;;17.40;47.50;;;;;;5087196;28;45254;-77
2022/01/25 05:32:01;;;;;;;1.65;1.08;;;17.50;47.60;;;;;;5079509;28;45343;-77
2022/01/25 05:34:28;;;;;;;2.22;1.10;;;17.40;47.30;;;;;;5085966;28;48128;-77
2022/01/25 05:36:56;;;;;;;1.67;1.17;;;17.40;47.40;;;;;;5082065;27;45311;-75
2022/01/25 05:39:27;;;;;;;1.98;1.00;;;17.40;47.40;;;;;;5081479;28;45392;-76
2022/01/25 05:41:57;;;;;;;1.30;1.20;;;17.40;47.20;;;;;;5087324;28;45466;-77
2022/01/25 05:44:38;;;;;;;1.88;1.10;;;17.40;47.40;;;;;;5076553;28;45703;-77
2022/01/25 05:47:13;;;;;;;1.30;1.20;;;17.30;47.50;;;;;;5083467;28;45105;-76
2022/01/25 05:49:43;;;;;;;1.80;1.17;;;17.30;47.60;;;;;;5085707;28;45250;-77
2022/01/25 05:52:11;;;;;;;2.03;1.35;;;17.30;47.70;;;;;;5088432;27;45221;-77
2022/01/25 05:54:41;;;;;;;1.70;1.33;;;17.30;47.60;;;;;;5078893;28;46112;-77
2022/01/25 05:57:08;;;;;;;2.00;1.52;;;17.40;47.90;;;;;;5086119;27;45191;-76
2022/01/25 05:59:37;;;;;;;3.13;1.38;;;17.40;47.70;;;;;;5080669;28;45331;-77
2022/01/25 06:02:04;;;;;;;2.10;1.50;;;17.40;47.60;;;;;;5085370;28;45523;-77
2022/01/25 06:04:33;;;;;;;1.77;1.48;;;17.40;47.50;;;;;;5086390;28;46614;-76
2022/01/25 06:07:01;;;;;;;2.55;1.80;;;17.40;47.40;;;;;;5087790;28;45205;-77
2022/01/25 06:09:29;;;;;;;2.10;1.70;;;17.40;47.40;;;;;;5086717;28;45229;-77
2022/01/25 06:11:56;;;;;;;1.60;1.50;;;17.30;47.80;;;;;;5088354;28;45527;-77
2022/01/25 06:14:26;;;;;;;2.35;1.85;;;17.30;48.00;;;;;;5083098;28;46184;-76
2022/01/25 06:16:55;;;;;;;3.67;1.90;;;17.30;48.20;;;;;;5079158;28;46036;-77
2022/01/25 06:19:22;;;;;;;1.90;1.70;;;17.30;48.30;;;;;;5085801;28;45265;-76
2022/01/25 06:21:51;;;;;;;4.65;1.85;;;17.30;48.30;;;;;;5087752;28;45313;-76
2022/01/25 06:24:18;;;;;;;2.20;1.75;;;17.30;48.30;;;;;;5087610;28;47822;-76
2022/01/25 06:26:45;;;;;;;3.20;1.92;;;17.30;48.30;;;;;;5086760;28;45269;-76
2022/01/25 06:29:16;;;;;;;3.78;2.25;;;17.30;48.30;;;;;;5084111;27;45323;-76
2022/01/25 06:31:43;;;;;;;2.72;2.00;;;17.30;48.50;;;;;;5071942;28;45351;-77
2022/01/25 06:34:13;;;;;;;3.78;1.67;;;17.30;48.40;;;;;;5076715;28;46243;-78
2022/01/25 06:36:40;;;;;;;1.85;1.40;;;17.40;51.40;;;;;;5080847;28;45357;-79
2022/01/25 06:39:09;;;;;;;3.50;1.70;;;17.50;51.90;;;;;;5081114;28;45283;-77
2022/01/25 06:41:37;;;;;;;5.25;1.90;;;17.60;51.80;;;;;;5085473;28;45379;-75
2022/01/25 06:44:05;;;;;;;2.28;1.50;;;17.60;51.80;;;;;;5074629;28;48106;-75
2022/01/25 06:46:32;;;;;;;2.28;1.48;;;17.60;50.60;;;;;;5085794;28;45252;-76
2022/01/25 06:48:59;;;;;;;2.72;1.90;;;17.60;49.90;;;;;;5079475;28;45355;-74
2022/01/25 06:51:26;;;;;;;3.90;1.88;;;17.60;49.50;;;;;;5083830;28;45300;-75
2022/01/25 06:53:53;;;;;;;2.63;1.80;;;17.60;49.30;;;;;;5078354;28;48113;-75
2022/01/25 06:56:22;;;;;;;2.63;2.08;;;17.50;49.20;;;;;;5068573;28;45853;-76
2022/01/25 06:58:49;;;;;;;3.05;2.10;;;17.50;49.10;;;;;;5082850;28;45326;-75
2022/01/25 07:01:17;;;;;;;4.47;1.88;;;17.50;49.00;;;;;;5077551;28;45692;-75
2022/01/25 07:03:44;;;;;;;2.13;1.77;;;17.50;50.40;;;;;;5087507;28;46749;-75
2022/01/25 07:06:11;;;;;;;5.10;2.30;;;17.50;49.00;;;;;;5084502;28;45305;-76
2022/01/25 07:08:39;;;;;;;4.25;2.47;;;17.50;48.60;;;;;;5085941;28;45260;-75
2022/01/25 07:11:06;;;;;;;3.80;1.90;;;17.50;48.50;;;;;;5090855;28;45371;-75
2022/01/25 07:13:34;;;;;;;2.15;1.70;;;17.50;48.50;;;;;;5089788;28;47076;-75
2022/01/25 07:16:01;;;;;;;3.38;2.30;;;17.50;48.40;;;;;;5090662;27;45921;-75
2022/01/25 07:18:28;;;;;;;3.10;2.00;;;17.50;48.40;;;;;;5090569;28;45252;-75
2022/01/25 07:20:56;;;;;;;3.00;2.30;;;17.50;48.30;;;;;;5091017;28;45322;-75
2022/01/25 07:23:22;;;;;;;2.78;2.20;;;17.50;48.30;;;;;;5084277;27;47702;-75
2022/01/25 07:25:50;;;;;;;2.72;1.90;;;17.50;48.10;;;;;;5070411;28;45123;-75
2022/01/25 07:28:17;;;;;;;2.97;1.88;;;17.60;48.10;;;;;;5070107;28;45260;-75
2022/01/25 07:30:46;;;;;;;2.70;2.17;;;17.60;48.30;;;;;;5073247;28;45171;-75
2022/01/25 07:33:12;;;;;;;2.45;2.05;;;17.60;47.90;;;;;;5081822;28;47376;-74
2022/01/25 07:35:40;;;;;;;2.90;1.98;;;17.60;47.80;;;;;;5085702;28;45703;-74
2022/01/25 07:38:07;;;;;;;3.78;2.53;;;17.60;47.90;;;;;;5087622;28;45163;-74
2022/01/25 07:40:36;;;;;;;3.15;2.50;;;17.50;47.80;;;;;;5079464;28;45264;-74
2022/01/25 07:43:03;;;;;;;2.97;2.05;;;17.60;47.80;;;;;;5083200;28;46669;-74
2022/01/25 07:45:34;;;;;;;3.67;2.30;;;17.50;47.80;;;;;;5081681;28;46214;-74
2022/01/25 07:48:04;;;;;;;3.15;2.38;;;17.50;47.80;;;;;;5073872;28;45630;-74
2022/01/25 07:50:31;;;;;;;3.13;2.08;;;17.50;47.70;;;;;;5077586;28;45280;-73
2022/01/25 07:52:58;;;;;;;2.80;2.08;;;17.50;47.70;;;;;;5073710;28;47593;-74
2022/01/25 07:55:25;;;;;;;2.92;1.88;;;17.50;48.00;;;;;;5077814;28;45355;-73
2022/01/25 07:57:51;;;;;;;3.42;2.10;;;17.50;49.50;;;;;;5081609;28;45186;-72
2022/01/25 08:00:20;;;;;;;7.13;2.10;;;17.60;51.80;;;;;;5082805;28;45443;-76
2022/01/25 08:02:48;;;;;;;3.45;1.90;;;17.70;50.00;;;;;;5080553;28;48220;-76
2022/01/25 08:05:18;;;;;;;6.45;2.50;;;17.70;49.00;;;;;;5081764;28;45321;-75
2022/01/25 08:07:45;;;;;;;5.38;2.33;;;17.70;48.50;;;;;;5088741;28;45257;-76
2022/01/25 08:10:13;;;;;;;3.05;2.13;;;17.70;48.70;;;;;;5082658;28;45516;-76
2022/01/25 08:12:40;;;;;;;2.38;2.10;;;17.60;48.50;;;;;;5090319;28;48020;-76
2022/01/25 08:15:08;;;;;;;2.75;1.90;;;17.60;48.50;;;;;;5090198;28;45632;-76
2022/01/25 08:17:36;;;;;;;2.58;1.85;;;17.60;47.80;;;;;;5089697;28;46261;-76
2022/01/25 08:20:04;;;;;;;2.50;2.03;;;17.60;47.90;;;;;;5090395;27;45273;-76
2022/01/25 08:22:34;;;;;;;2.42;1.90;;;17.60;48.10;;;;;;5088636;27;47427;-76
2022/01/25 08:25:01;;;;;;;2.83;2.00;;;17.50;47.90;;;;;;5090263;28;45101;-76
2022/01/25 08:27:28;;;;;;;3.63;2.20;;;17.50;47.30;;;;;;5090507;28;45223;-76
2022/01/25 08:29:56;;;;;;;3.33;1.85;;;17.50;47.90;;;;;;5089345;28;45208;-76
2022/01/25 08:32:23;;;;;;;2.60;2.22;;;17.50;47.80;;;;;;5090132;27;45965;-76
2022/01/25 08:34:51;;;;;;;3.65;2.22;;;17.50;47.70;;;;;;5090477;28;45170;-75
2022/01/25 08:37:18;;;;;;;3.67;2.20;;;17.50;47.30;;;;;;5089074;28;45409;-75
2022/01/25 08:39:46;;;;;;;3.05;1.98;;;17.50;47.30;;;;;;5089138;28;45543;-75
2022/01/25 08:42:13;;;;;;;3.05;2.10;;;17.50;47.30;;;;;;5082580;28;48550;-75
2022/01/25 08:44:40;;;;;;;2.03;1.70;;;17.60;47.70;;;;;;5084512;28;46207;-76
2022/01/25 08:47:08;;;;;;;3.78;2.50;;;17.60;47.40;;;;;;5082213;28;45185;-76
2022/01/25 08:49:38;;;;;;;3.60;2.17;;;17.60;47.40;;;;;;5090073;28;45355;-76
2022/01/25 08:52:05;;;;;;;2.58;2.00;;;17.50;47.30;;;;;;5087782;28;47175;-76
2022/01/25 08:54:33;;;;;;;2.97;2.10;;;17.60;47.30;;;;;;5089155;28;45243;-75
2022/01/25 08:57:02;;;;;;;4.00;2.08;;;17.60;47.10;;;;;;5088141;28;45193;-76
2022/01/25 08:59:30;;;;;;;2.72;2.28;;;17.60;47.00;;;;;;5088429;28;45236;-75
2022/01/25 09:01:57;;;;;;;2.20;1.95;;;17.50;46.80;;;;;;5078678;27;46637;-76
2022/01/25 09:04:25;;;;;;;3.17;2.05;;;17.50;47.20;;;;;;5088950;28;45257;-75
2022/01/25 09:06:52;;;;;;;2.78;2.13;;;17.50;47.40;;;;;;5088775;28;45261;-76
2022/01/25 09:09:20;;;;;;;3.10;2.47;;;17.50;47.40;;;;;;5088583;28;45276;-76
2022/01/25 09:11:47;;;;;;;2.33;1.83;;;17.50;46.60;;;;;;5088732;28;48097;-76
2022/01/25 09:14:16;;;;;;;2.05;1.63;;;17.50;47.20;;;;;;5088778;28;45229;-76
2022/01/25 09:16:44;;;;;;;2.92;2.20;;;17.50;47.40;;;;;;5075481;28;45352;-76
2022/01/25 09:19:11;;;;;;;3.85;2.25;;;17.50;47.40;;;;;;5080354;28;45531;-76
2022/01/25 09:21:38;;;;;;;2.38;1.92;;;17.50;47.20;;;;;;5087114;28;46654;-76
2022/01/25 09:24:06;;;;;;;3.05;2.03;;;17.50;46.70;;;;;;5088184;28;46708;-76
2022/01/25 09:26:33;;;;;;;2.67;2.10;;;17.50;47.00;;;;;;5088666;28;45370;-76
2022/01/25 09:29:00;;;;;;;2.45;1.90;;;17.50;47.00;;;;;;5088636;28;45269;-76
2022/01/25 09:31:29;;;;;;;2.08;1.70;;;17.60;47.10;;;;;;5087343;28;46135;-76
2022/01/25 09:33:56;;;;;;;2.80;2.13;;;17.60;46.80;;;;;;5088134;27;45209;-76
2022/01/25 09:36:24;;;;;;;2.40;1.90;;;17.60;46.60;;;;;;5087636;28;45244;-76
2022/01/25 09:38:52;;;;;;;3.05;2.30;;;17.50;46.80;;;;;;5086100;28;45467;-76
2022/01/25 09:41:20;;;;;;;3.13;2.22;;;17.50;46.90;;;;;;5078462;28;47601;-76
2022/01/25 09:43:47;;;;;;;2.30;2.10;;;17.50;47.00;;;;;;5083880;28;45448;-76
2022/01/25 09:46:15;;;;;;;3.25;1.98;;;17.50;46.90;;;;;;5078921;28;45293;-76
2022/01/25 09:48:44;;;;;;;2.20;1.98;;;17.50;46.90;;;;;;5081641;28;45161;-76
2022/01/25 09:51:12;;;;;;;2.67;1.95;;;17.50;47.00;;;;;;5080717;28;48930;-76
2022/01/25 09:53:40;;;;;;;3.30;2.25;;;17.50;47.00;;;;;;5078695;28;45631;-76
2022/01/25 09:56:09;;;;;;;3.22;2.47;;;17.50;47.10;;;;;;5078215;28;45223;-76
2022/01/25 09:58:36;;;;;;;2.55;2.35;;;17.50;47.20;;;;;;5082896;28;45586;-76
2022/01/25 10:01:04;;;;;;;2.92;2.28;;;17.50;47.20;;;;;;5084737;28;47336;-76
2022/01/25 10:03:37;;;;;;;2.80;2.20;;;17.50;47.10;;;;;;5082303;28;45359;-76
2022/01/25 10:06:12;;;;;;;3.40;2.45;;;17.50;46.70;;;;;;5084085;28;45145;-76
2022/01/25 10:08:40;;;;;;;2.67;2.33;;;17.50;47.00;;;;;;5088414;28;45249;-76
2022/01/25 10:11:10;;;;;;;2.97;2.50;;;17.50;46.70;;;;;;5086898;28;48401;-76
2022/01/25 10:13:39;;;;;;;2.83;2.35;;;17.50;46.80;;;;;;5081307;28;46019;-76
2022/01/25 10:16:07;;;;;;;3.35;2.25;;;17.60;46.60;;;;;;5083765;28;45436;-76
2022/01/25 10:18:43;;;;;;;2.53;2.10;;;17.50;46.30;;;;;;5082856;28;45392;-76
2022/01/25 10:21:18;;;;;;;3.05;2.15;;;17.50;46.20;;;;;;5082271;28;47524;-75
2022/01/25 10:24:01;;;;;;;2.80;2.20;;;17.50;46.30;;;;;;5076240;28;45399;-76
2022/01/25 10:26:32;;;;;;;2.10;1.90;;;17.50;46.40;;;;;;5067798;28;45467;-76
2022/01/25 10:28:59;;;;;;;3.08;2.00;;;17.50;46.40;;;;;;5077339;28;45342;-76
2022/01/25 10:31:39;;;;;;;4.15;2.15;;;17.40;46.40;;;;;;5088336;28;46181;-76
2022/01/25 10:34:07;;;;;;;2.60;2.33;;;17.50;46.60;;;;;;5087782;28;45158;-76
2022/01/25 10:36:42;;;;;;;2.72;1.83;;;17.50;46.60;;;;;;5088102;27;45208;-76
2022/01/25 10:39:10;;;;;;;2.83;2.10;;;17.50;46.50;;;;;;5087802;28;45380;-75
2022/01/25 10:41:38;;;;;;;2.60;2.10;;;17.40;46.60;;;;;;5086968;28;45498;-76
2022/01/25 10:44:08;;;;;;;2.92;2.03;;;17.50;46.60;;;;;;5078709;28;45215;-76
2022/01/25 10:46:36;;;;;;;2.47;2.05;;;17.50;46.30;;;;;;5086413;28;45208;-76
2022/01/25 10:49:06;;;;;;;2.60;2.03;;;17.50;46.20;;;;;;5082214;28;45407;-76
2022/01/25 10:51:38;;;;;;;2.60;2.20;;;17.50;46.00;;;;;;5089307;28;47515;-76
2022/01/25 10:54:10;;;;;;;2.58;1.90;;;17.50;46.30;;;;;;5083070;28;45200;-76
2022/01/25 10:56:40;;;;;;;2.80;2.22;;;17.60;45.90;;;;;;5086762;28;45249;-76
2022/01/25 10:59:11;;;;;;;4.32;2.70;;;17.60;47.00;;;;;;5082746;28;45239;-76
2022/01/25 11:01:41;;;;;;;2.70;2.25;;;17.50;45.60;;;;;;5082696;28;47291;-76
2022/01/25 11:04:13;;;;;;;3.58;2.17;;;17.50;45.70;;;;;;5090465;28;46386;-76
2022/01/25 11:06:43;;;;;;;3.70;1.95;;;17.50;45.70;;;;;;5088115;28;45260;-77
2022/01/25 11:09:13;;;;;;;3.33;2.40;;;17.50;45.90;;;;;;5081322;28;45392;-76
2022/01/25 11:11:45;;;;;;;2.50;1.95;;;17.50;45.90;;;;;;5091547;27;47526;-76
2022/01/25 11:16:57;;;;;;;3.88;2.20;;;17.50;46.00;;;;;;5090665;28;45175;-76
2022/01/25 11:19:25;;;;;;;3.60;2.50;;;17.50;46.00;;;;;;5090507;28;45267;-76
2022/01/25 11:21:58;;;;;;;2.40;2.20;;;17.50;46.10;;;;;;5090675;28;46005;-76
2022/01/25 11:24:26;;;;;;;2.40;1.90;;;17.50;46.00;;;;;;5089327;28;45247;-76
2022/01/25 11:26:54;;;;;;;3.13;2.45;;;17.50;45.90;;;;;;5081245;28;45459;-76
2022/01/25 11:29:22;;;;;;;3.22;2.28;;;17.50;45.90;;;;;;5085769;28;45111;-76
2022/01/25 11:31:53;;;;;;;4.40;2.30;;;17.50;45.90;;;;;;5078584;28;47304;-76
2022/01/25 11:34:26;;;;;;;3.05;2.17;;;17.50;45.90;;;;;;5091350;28;45482;-76
2022/01/25 11:36:55;;;;;;;2.78;2.30;;;17.50;45.80;;;;;;5090485;28;45234;-76
2022/01/25 11:39:24;;;;;;;3.00;1.90;;;17.50;45.80;;;;;;5090180;28;45324;-76
2022/01/25 11:41:52;;;;;;;3.08;2.22;;;17.50;45.70;;;;;;5090874;28;47309;-76
2022/01/25 11:44:26;;;;;;;2.58;1.73;;;17.50;45.80;;;;;;5089638;28;45887;-76
2022/01/25 11:46:57;;;;;;;3.05;2.20;;;17.50;46.00;;;;;;5090624;27;45305;-76
2022/01/25 11:49:25;;;;;;;3.85;2.20;;;17.50;46.00;;;;;;5090991;28;45527;-76
2022/01/25 11:52:11;;;;;;;2.58;2.10;;;17.50;46.10;;;;;;5089682;28;46921;-76
2022/01/25 11:54:38;;;;;;;3.60;2.03;;;17.50;46.10;;;;;;5091148;28;45281;-76
2022/01/25 11:57:13;;;;;;;2.85;2.30;;;17.50;45.90;;;;;;5087584;27;45247;-76
2022/01/25 11:59:41;;;;;;;2.88;2.53;;;17.50;45.90;;;;;;5090473;28;45408;-76
2022/01/25 12:02:09;;;;;;;2.80;2.22;;;17.50;45.90;;;;;;5088431;27;46932;-76
2022/01/25 12:04:36;;;;;;;2.30;2.00;;;17.50;45.90;;;;;;5080840;28;45105;-76
2022/01/25 12:07:13;;;;;;;3.10;2.25;;;17.50;46.00;;;;;;5081989;28;45388;-76
2022/01/25 12:09:48;;;;;;;3.10;2.47;;;17.50;45.80;;;;;;5085170;28;45224;-76
2022/01/25 12:12:17;;;;;;;3.30;2.10;;;17.50;46.00;;;;;;5076147;28;47278;-76
2022/01/25 12:14:51;;;;;;;3.60;2.45;;;17.50;45.70;;;;;;5083390;28;45306;-76
2022/01/25 12:17:23;;;;;;;2.65;2.13;;;17.50;45.50;;;;;;5071865;28;45128;-76
2022/01/25 12:19:53;;;;;;;2.40;2.13;;;17.50;45.60;;;;;;5080299;27;45477;-76
2022/01/25 12:22:37;;;;;;;3.08;2.22;;;17.50;45.80;;;;;;5084703;28;47097;-76
2022/01/25 12:25:13;;;;;;;2.55;1.98;;;17.50;45.90;;;;;;5087931;28;45810;-76
2022/01/25 12:27:52;;;;;;;3.08;2.22;;;17.50;45.90;;;;;;5089249;28;45568;-77
2022/01/25 12:30:32;;;;;;;2.45;2.10;;;17.50;45.70;;;;;;5083127;28;45363;-76
2022/01/25 12:33:02;;;;;;;3.28;2.40;;;17.40;45.80;;;;;;5084116;28;46414;-76
2022/01/25 12:35:39;;;;;;;3.20;2.17;;;17.50;45.80;;;;;;5080162;28;45225;-76
2022/01/25 12:38:11;;;;;;;2.15;1.85;;;17.50;45.90;;;;;;5088882;28;45289;-76
2022/01/25 12:41:01;;;;;;;3.78;2.67;;;17.50;45.80;;;;;;5083254;28;45426;-76
2022/01/25 12:43:33;;;;;;;3.80;2.45;;;17.50;45.70;;;;;;5081448;28;47720;-76
2022/01/25 12:46:06;;;;;;;3.60;2.42;;;17.50;45.50;;;;;;5078217;28;45274;-76
2022/01/25 12:48:35;;;;;;;3.13;2.40;;;17.50;45.30;;;;;;5087115;28;45483;-76
2022/01/25 12:51:06;;;;;;;3.33;2.45;;;17.50;45.30;;;;;;5086205;28;45284;-76
2022/01/25 12:53:36;;;;;;;3.25;2.58;;;17.50;45.50;;;;;;5078990;28;48227;-76
2022/01/25 12:56:09;;;;;;;3.20;2.38;;;17.50;45.20;;;;;;5088415;28;45191;-76
2022/01/25 12:58:37;;;;;;;3.20;2.38;;;17.50;45.20;;;;;;5089487;28;45268;-76
2022/01/25 13:01:07;;;;;;;3.17;2.58;;;17.50;45.00;;;;;;5089435;28;45357;-76
2022/01/25 13:03:36;;;;;;;3.63;2.65;;;17.50;45.20;;;;;;5084651;28;48438;-76
2022/01/25 13:06:09;;;;;;;3.67;2.60;;;17.50;45.20;;;;;;5086391;28;46128;-76
2022/01/25 13:08:44;;;;;;;3.30;2.50;;;17.50;45.30;;;;;;5087686;27;45231;-76
2022/01/25 13:11:28;;;;;;;2.75;2.20;;;17.50;45.40;;;;;;5089036;28;45507;-76
2022/01/25 13:14:01;;;;;;;3.10;2.35;;;17.50;45.40;;;;;;5088723;28;45306;-76
2022/01/25 13:16:40;;;;;;;3.17;2.35;;;17.40;45.30;;;;;;5076552;28;45185;-76
2022/01/25 13:19:08;;;;;;;3.58;2.38;;;17.40;45.50;;;;;;5068936;28;45230;-76
2022/01/25 13:21:40;;;;;;;3.53;2.53;;;17.50;45.70;;;;;;5085424;28;45346;-76
2022/01/25 13:24:13;;;;;;;2.83;2.50;;;17.50;45.70;;;;;;5088738;28;46747;-76
2022/01/25 13:26:53;;;;;;;3.22;2.38;;;17.50;45.50;;;;;;5088300;28;45383;-76
2022/01/25 13:32:22;;;;;;;3.22;2.28;;;17.50;45.50;;;;;;5026344;28;45395;-76
2022/01/25 13:35:05;;;;;;;3.75;2.50;;;17.50;45.50;;;;;;5073946;28;47585;-76
2022/01/25 13:37:32;;;;;;;4.50;2.75;;;17.50;45.40;;;;;;5086896;28;45327;-76
2022/01/25 13:40:03;;;;;;;3.15;2.63;;;17.50;45.10;;;;;;5086587;28;45338;-76
2022/01/25 13:42:41;;;;;;;2.80;2.47;;;17.50;45.10;;;;;;5087050;28;45500;-77
2022/01/25 13:48:02;;;;;;;3.17;2.50;;;17.40;45.50;;;;;;5084820;28;45338;-76
2022/01/25 13:50:29;;;;;;;3.47;2.60;;;17.40;45.40;;;;;;5088342;28;45277;-76
2022/01/25 13:52:56;;;;;;;3.03;2.55;;;17.40;45.60;;;;;;5073399;28;45371;-76
2022/01/25 13:55:23;;;;;;;3.28;2.63;;;17.30;45.50;;;;;;5086645;28;47455;-76
2022/01/25 13:57:51;;;;;;;4.05;2.55;;;17.30;45.50;;;;;;5087564;28;45231;-76
2022/01/25 14:00:20;;;;;;;4.13;2.95;;;17.30;45.60;;;;;;5081836;28;45323;-76
2022/01/25 14:02:51;;;;;;;3.65;2.30;;;17.30;45.50;;;;;;5081062;27;45666;-76
2022/01/25 14:05:19;;;;;;;3.40;2.58;;;17.30;45.80;;;;;;5086852;28;45264;-76
2022/01/25 14:07:49;;;;;;;3.75;2.65;;;17.30;45.90;;;;;;5086556;28;45495;-77
2022/01/25 14:10:22;;;;;;;4.30;2.70;;;17.30;46.40;;;;;;5088015;28;45321;-77
2022/01/25 14:23:54;;;;;;;3.95;2.92;;;17.40;45.30;;;;;;5088295;28;45355;-76
2022/01/25 14:26:27;;;;;;;3.20;2.63;;;17.40;45.40;;;;;;5087487;28;47484;-77
2022/01/25 14:29:12;;;;;;;3.13;2.30;;;17.30;45.30;;;;;;5088968;28;45290;-77
2022/01/25 14:31:42;;;;;;;3.47;2.40;;;17.30;45.10;;;;;;5084789;28;45192;-77
2022/01/25 14:34:11;;;;;;;3.65;2.75;;;17.30;45.00;;;;;;5092234;27;46238;-77
2022/01/25 14:36:42;;;;;;;3.80;2.67;;;17.30;45.20;;;;;;5081222;28;47462;-76
2022/01/25 14:39:10;;;;;;;3.85;2.47;;;17.30;45.00;;;;;;5076526;28;45633;-76
2022/01/25 14:41:38;;;;;;;4.28;2.90;;;17.40;45.30;;;;;;5087261;28;45281;-77